Aviation Digital Data Service (ADDS)

Output produced by METARs form (1822 UTC 22 November 2017)
found at http://www.aviationweather.gov/adds/metars/
 
KWJF 221727Z 2218/2318 VRB05KT P6SM SKC
       
KWMC 221741Z 2218/2318 08005KT P6SM BKN200 
     FM230400 15006KT P6SM BKN200
       
TAF AMD KWRB 221600Z 2216/2319 VRB06KT 9999 SCT005 BKN070 QNH2999INS 
     BECMG 2223/2224 VRB06KT 9999 SCT200 QNH3005INS 
     BECMG 2308/2309 05009KT 9999 BKN040 OVC080 QNH3008INS TX19/2221Z TN10/2310Z
       
TAF KWRI 221800Z 2218/2324 33012KT 9999 BKN080 QNH2986INS 
     BECMG 2218/2219 34015G25KT 9999 BKN030 QNH2998INS 
     BECMG 2301/2302 35009KT 9999 SKC QNH3000INS WND 26009KT AFT 2319 TX14/2219Z TNM01/2310Z
       
KWRL 221725Z 2218/2318 VRB06KT P6SM SCT090 BKN150 
     FM230200 17006KT P6SM BKN120